sensor_id;sensor_type;location;lat;lon;timestamp;P1;durP1;ratioP1;P2;durP2;ratioP2
39540;SDS011;25219;52.244;21.006;2023-12-14T00:02:18;47.17;;;19.20;;
39540;SDS011;25219;52.244;21.006;2023-12-14T00:04:43;44.20;;;18.43;;
39540;SDS011;25219;52.244;21.006;2023-12-14T00:07:08;44.93;;;19.90;;
39540;SDS011;25219;52.244;21.006;2023-12-14T00:09:35;46.45;;;17.95;;
39540;SDS011;25219;52.244;21.006;2023-12-14T00:12:00;45.73;;;19.30;;
39540;SDS011;25219;52.244;21.006;2023-12-14T00:14:26;45.97;;;19.30;;
39540;SDS011;25219;52.244;21.006;2023-12-14T00:16:51;49.15;;;18.83;;
39540;SDS011;25219;52.244;21.006;2023-12-14T00:19:16;50.27;;;20.10;;
39540;SDS011;25219;52.244;21.006;2023-12-14T00:21:41;48.47;;;20.58;;
39540;SDS011;25219;52.244;21.006;2023-12-14T00:24:07;46.50;;;19.58;;
39540;SDS011;25219;52.244;21.006;2023-12-14T00:26:32;47.33;;;19.80;;
39540;SDS011;25219;52.244;21.006;2023-12-14T00:28:57;47.27;;;19.20;;
39540;SDS011;25219;52.244;21.006;2023-12-14T00:31:22;48.20;;;19.47;;
39540;SDS011;25219;52.244;21.006;2023-12-14T00:33:47;46.08;;;19.38;;
39540;SDS011;25219;52.244;21.006;2023-12-14T00:36:19;48.83;;;19.83;;
39540;SDS011;25219;52.244;21.006;2023-12-14T00:38:44;45.08;;;19.13;;
39540;SDS011;25219;52.244;21.006;2023-12-14T00:41:10;45.88;;;19.17;;
39540;SDS011;25219;52.244;21.006;2023-12-14T00:43:35;42.87;;;18.50;;
39540;SDS011;25219;52.244;21.006;2023-12-14T00:46:01;47.03;;;19.27;;
39540;SDS011;25219;52.244;21.006;2023-12-14T00:48:26;39.97;;;18.23;;
39540;SDS011;25219;52.244;21.006;2023-12-14T00:50:51;44.45;;;17.27;;
39540;SDS011;25219;52.244;21.006;2023-12-14T00:53:16;43.17;;;18.70;;
39540;SDS011;25219;52.244;21.006;2023-12-14T00:55:42;43.57;;;18.13;;
39540;SDS011;25219;52.244;21.006;2023-12-14T00:58:07;35.67;;;16.73;;
39540;SDS011;25219;52.244;21.006;2023-12-14T01:00:32;36.90;;;16.15;;
39540;SDS011;25219;52.244;21.006;2023-12-14T01:02:57;39.55;;;17.25;;
39540;SDS011;25219;52.244;21.006;2023-12-14T01:05:23;42.13;;;17.90;;
39540;SDS011;25219;52.244;21.006;2023-12-14T01:07:48;38.00;;;17.30;;
39540;SDS011;25219;52.244;21.006;2023-12-14T01:10:13;41.63;;;18.17;;
39540;SDS011;25219;52.244;21.006;2023-12-14T01:12:38;38.83;;;16.52;;
39540;SDS011;25219;52.244;21.006;2023-12-14T01:15:03;41.10;;;17.57;;
39540;SDS011;25219;52.244;21.006;2023-12-14T01:17:29;40.00;;;17.65;;
39540;SDS011;25219;52.244;21.006;2023-12-14T01:19:54;40.05;;;17.00;;
39540;SDS011;25219;52.244;21.006;2023-12-14T01:22:19;39.27;;;16.93;;
39540;SDS011;25219;52.244;21.006;2023-12-14T01:24:45;43.53;;;18.38;;
39540;SDS011;25219;52.244;21.006;2023-12-14T01:27:10;41.13;;;17.15;;
39540;SDS011;25219;52.244;21.006;2023-12-14T01:29:38;40.30;;;16.10;;
39540;SDS011;25219;52.244;21.006;2023-12-14T01:32:04;41.50;;;16.23;;
39540;SDS011;25219;52.244;21.006;2023-12-14T01:34:29;37.70;;;16.67;;
39540;SDS011;25219;52.244;21.006;2023-12-14T01:36:54;39.27;;;15.97;;
39540;SDS011;25219;52.244;21.006;2023-12-14T01:39:19;39.30;;;15.43;;
39540;SDS011;25219;52.244;21.006;2023-12-14T01:41:45;42.88;;;16.70;;
39540;SDS011;25219;52.244;21.006;2023-12-14T01:44:10;43.13;;;15.53;;
39540;SDS011;25219;52.244;21.006;2023-12-14T01:46:35;38.80;;;15.77;;
39540;SDS011;25219;52.244;21.006;2023-12-14T01:49:00;39.43;;;15.73;;
39540;SDS011;25219;52.244;21.006;2023-12-14T01:51:25;35.40;;;14.40;;
39540;SDS011;25219;52.244;21.006;2023-12-14T01:53:51;40.83;;;16.80;;
39540;SDS011;25219;52.244;21.006;2023-12-14T01:56:16;41.55;;;17.15;;
39540;SDS011;25219;52.244;21.006;2023-12-14T01:58:41;42.65;;;15.65;;
39540;SDS011;25219;52.244;21.006;2023-12-14T02:01:18;38.93;;;16.30;;
39540;SDS011;25219;52.244;21.006;2023-12-14T02:03:45;45.75;;;15.70;;
39540;SDS011;25219;52.244;21.006;2023-12-14T02:06:10;44.05;;;16.77;;
39540;SDS011;25219;52.244;21.006;2023-12-14T02:08:36;44.53;;;17.43;;
39540;SDS011;25219;52.244;21.006;2023-12-14T02:11:01;43.03;;;17.02;;
39540;SDS011;25219;52.244;21.006;2023-12-14T02:13:26;41.90;;;15.85;;
39540;SDS011;25219;52.244;21.006;2023-12-14T02:15:52;44.63;;;16.80;;
39540;SDS011;25219;52.244;21.006;2023-12-14T02:18:18;41.33;;;15.52;;
39540;SDS011;25219;52.244;21.006;2023-12-14T02:20:43;46.63;;;18.73;;
39540;SDS011;25219;52.244;21.006;2023-12-14T02:23:09;48.20;;;17.10;;
39540;SDS011;25219;52.244;21.006;2023-12-14T02:25:34;42.87;;;17.03;;
39540;SDS011;25219;52.244;21.006;2023-12-14T02:27:59;42.88;;;16.80;;
39540;SDS011;25219;52.244;21.006;2023-12-14T02:30:24;47.23;;;17.40;;
39540;SDS011;25219;52.244;21.006;2023-12-14T02:32:50;41.95;;;16.70;;
39540;SDS011;25219;52.244;21.006;2023-12-14T02:35:15;44.55;;;17.27;;
39540;SDS011;25219;52.244;21.006;2023-12-14T02:37:40;48.35;;;17.30;;
39540;SDS011;25219;52.244;21.006;2023-12-14T02:40:06;46.38;;;17.17;;
39540;SDS011;25219;52.244;21.006;2023-12-14T02:42:31;49.78;;;16.63;;
39540;SDS011;25219;52.244;21.006;2023-12-14T02:44:57;49.63;;;18.55;;
39540;SDS011;25219;52.244;21.006;2023-12-14T02:47:22;52.17;;;18.67;;
39540;SDS011;25219;52.244;21.006;2023-12-14T02:49:47;45.75;;;17.20;;
39540;SDS011;25219;52.244;21.006;2023-12-14T02:52:13;53.83;;;18.60;;
39540;SDS011;25219;52.244;21.006;2023-12-14T02:54:38;45.13;;;17.50;;
39540;SDS011;25219;52.244;21.006;2023-12-14T02:57:04;55.05;;;17.77;;
39540;SDS011;25219;52.244;21.006;2023-12-14T02:59:29;52.47;;;18.40;;
39540;SDS011;25219;52.244;21.006;2023-12-14T03:01:54;52.30;;;17.60;;
39540;SDS011;25219;52.244;21.006;2023-12-14T03:04:19;49.70;;;17.07;;
39540;SDS011;25219;52.244;21.006;2023-12-14T03:06:44;51.30;;;17.77;;
39540;SDS011;25219;52.244;21.006;2023-12-14T03:09:10;54.38;;;18.73;;
39540;SDS011;25219;52.244;21.006;2023-12-14T03:11:35;51.00;;;17.80;;
39540;SDS011;25219;52.244;21.006;2023-12-14T03:14:00;47.20;;;16.98;;
39540;SDS011;25219;52.244;21.006;2023-12-14T03:16:25;51.78;;;18.42;;
39540;SDS011;25219;52.244;21.006;2023-12-14T03:18:51;49.55;;;18.13;;
39540;SDS011;25219;52.244;21.006;2023-12-14T03:21:18;50.80;;;17.42;;
39540;SDS011;25219;52.244;21.006;2023-12-14T03:23:43;50.17;;;18.52;;
39540;SDS011;25219;52.244;21.006;2023-12-14T03:26:08;46.75;;;17.73;;
39540;SDS011;25219;52.244;21.006;2023-12-14T03:28:34;47.03;;;17.77;;
39540;SDS011;25219;52.244;21.006;2023-12-14T03:30:59;40.63;;;15.93;;
39540;SDS011;25219;52.244;21.006;2023-12-14T03:33:25;43.33;;;16.23;;
39540;SDS011;25219;52.244;21.006;2023-12-14T03:35:50;39.40;;;16.53;;
39540;SDS011;25219;52.244;21.006;2023-12-14T03:38:15;38.67;;;15.80;;
39540;SDS011;25219;52.244;21.006;2023-12-14T03:40:40;46.03;;;16.83;;
39540;SDS011;25219;52.244;21.006;2023-12-14T03:43:05;40.72;;;15.93;;
39540;SDS011;25219;52.244;21.006;2023-12-14T03:45:31;38.13;;;15.10;;
39540;SDS011;25219;52.244;21.006;2023-12-14T03:47:56;45.67;;;15.38;;
39540;SDS011;25219;52.244;21.006;2023-12-14T03:50:22;42.05;;;14.57;;
39540;SDS011;25219;52.244;21.006;2023-12-14T03:52:47;43.47;;;15.15;;
39540;SDS011;25219;52.244;21.006;2023-12-14T03:55:12;40.42;;;15.02;;
39540;SDS011;25219;52.244;21.006;2023-12-14T03:57:39;45.72;;;16.80;;
39540;SDS011;25219;52.244;21.006;2023-12-14T04:00:05;42.38;;;15.27;;
39540;SDS011;25219;52.244;21.006;2023-12-14T04:02:30;39.05;;;14.98;;
39540;SDS011;25219;52.244;21.006;2023-12-14T04:04:56;47.13;;;16.00;;
39540;SDS011;25219;52.244;21.006;2023-12-14T04:07:21;38.28;;;14.93;;
39540;SDS011;25219;52.244;21.006;2023-12-14T04:09:46;44.22;;;16.60;;
39540;SDS011;25219;52.244;21.006;2023-12-14T04:12:12;39.13;;;14.82;;
39540;SDS011;25219;52.244;21.006;2023-12-14T04:14:37;36.20;;;14.85;;
39540;SDS011;25219;52.244;21.006;2023-12-14T04:17:03;39.17;;;14.23;;
39540;SDS011;25219;52.244;21.006;2023-12-14T04:19:28;43.15;;;16.23;;
39540;SDS011;25219;52.244;21.006;2023-12-14T04:21:53;39.93;;;15.57;;
39540;SDS011;25219;52.244;21.006;2023-12-14T04:24:18;39.72;;;15.60;;
39540;SDS011;25219;52.244;21.006;2023-12-14T04:26:43;44.27;;;16.47;;
39540;SDS011;25219;52.244;21.006;2023-12-14T04:29:09;43.17;;;15.52;;
39540;SDS011;25219;52.244;21.006;2023-12-14T04:31:35;39.63;;;15.00;;
39540;SDS011;25219;52.244;21.006;2023-12-14T04:34:00;38.78;;;14.85;;
39540;SDS011;25219;52.244;21.006;2023-12-14T04:36:25;39.13;;;15.57;;
39540;SDS011;25219;52.244;21.006;2023-12-14T04:38:51;39.93;;;15.30;;
39540;SDS011;25219;52.244;21.006;2023-12-14T04:41:16;35.60;;;13.90;;
39540;SDS011;25219;52.244;21.006;2023-12-14T04:43:41;40.83;;;14.10;;
39540;SDS011;25219;52.244;21.006;2023-12-14T04:46:06;36.37;;;13.80;;
39540;SDS011;25219;52.244;21.006;2023-12-14T04:48:31;33.63;;;13.63;;
39540;SDS011;25219;52.244;21.006;2023-12-14T04:50:57;36.00;;;14.18;;
39540;SDS011;25219;52.244;21.006;2023-12-14T04:53:22;32.50;;;12.60;;
39540;SDS011;25219;52.244;21.006;2023-12-14T04:55:47;36.03;;;14.00;;
39540;SDS011;25219;52.244;21.006;2023-12-14T04:58:12;44.97;;;15.77;;
39540;SDS011;25219;52.244;21.006;2023-12-14T05:00:37;39.23;;;14.90;;
39540;SDS011;25219;52.244;21.006;2023-12-14T05:03:03;36.17;;;15.23;;
39540;SDS011;25219;52.244;21.006;2023-12-14T05:05:28;40.75;;;14.98;;
39540;SDS011;25219;52.244;21.006;2023-12-14T05:07:53;35.43;;;14.47;;
39540;SDS011;25219;52.244;21.006;2023-12-14T05:10:18;44.43;;;14.90;;
39540;SDS011;25219;52.244;21.006;2023-12-14T05:12:43;43.03;;;15.30;;
39540;SDS011;25219;52.244;21.006;2023-12-14T05:15:09;44.65;;;15.57;;
39540;SDS011;25219;52.244;21.006;2023-12-14T05:17:35;42.08;;;15.48;;
39540;SDS011;25219;52.244;21.006;2023-12-14T05:20:01;44.60;;;16.73;;
39540;SDS011;25219;52.244;21.006;2023-12-14T05:22:27;40.05;;;15.70;;
39540;SDS011;25219;52.244;21.006;2023-12-14T05:24:53;42.08;;;17.17;;
39540;SDS011;25219;52.244;21.006;2023-12-14T05:27:18;42.63;;;15.73;;
39540;SDS011;25219;52.244;21.006;2023-12-14T05:29:43;43.97;;;15.17;;
39540;SDS011;25219;52.244;21.006;2023-12-14T05:32:08;42.53;;;15.03;;
39540;SDS011;25219;52.244;21.006;2023-12-14T05:34:33;42.27;;;15.93;;
39540;SDS011;25219;52.244;21.006;2023-12-14T05:36:59;44.30;;;16.37;;
39540;SDS011;25219;52.244;21.006;2023-12-14T05:39:24;42.43;;;16.10;;
39540;SDS011;25219;52.244;21.006;2023-12-14T05:41:49;42.10;;;15.97;;
39540;SDS011;25219;52.244;21.006;2023-12-14T05:44:15;49.38;;;16.00;;
39540;SDS011;25219;52.244;21.006;2023-12-14T05:46:40;41.58;;;15.38;;
39540;SDS011;25219;52.244;21.006;2023-12-14T05:49:05;51.57;;;17.53;;
39540;SDS011;25219;52.244;21.006;2023-12-14T05:51:31;46.08;;;17.73;;
39540;SDS011;25219;52.244;21.006;2023-12-14T05:53:57;48.38;;;16.23;;
39540;SDS011;25219;52.244;21.006;2023-12-14T05:56:22;43.83;;;15.80;;
39540;SDS011;25219;52.244;21.006;2023-12-14T05:58:47;40.05;;;15.60;;
39540;SDS011;25219;52.244;21.006;2023-12-14T06:01:13;42.10;;;16.05;;
39540;SDS011;25219;52.244;21.006;2023-12-14T06:03:39;43.70;;;15.55;;
39540;SDS011;25219;52.244;21.006;2023-12-14T06:06:04;45.33;;;16.10;;
39540;SDS011;25219;52.244;21.006;2023-12-14T06:08:29;43.78;;;15.60;;
39540;SDS011;25219;52.244;21.006;2023-12-14T06:10:54;43.37;;;16.63;;
39540;SDS011;25219;52.244;21.006;2023-12-14T06:13:20;44.97;;;17.08;;
39540;SDS011;25219;52.244;21.006;2023-12-14T06:15:46;50.20;;;17.48;;
39540;SDS011;25219;52.244;21.006;2023-12-14T06:18:11;45.22;;;16.83;;
39540;SDS011;25219;52.244;21.006;2023-12-14T06:20:36;46.03;;;17.57;;
39540;SDS011;25219;52.244;21.006;2023-12-14T06:23:02;48.37;;;16.93;;
39540;SDS011;25219;52.244;21.006;2023-12-14T06:25:27;43.85;;;17.40;;
39540;SDS011;25219;52.244;21.006;2023-12-14T06:27:52;55.20;;;22.90;;
39540;SDS011;25219;52.244;21.006;2023-12-14T06:30:18;43.05;;;17.85;;
39540;SDS011;25219;52.244;21.006;2023-12-14T06:32:43;51.53;;;17.35;;
39540;SDS011;25219;52.244;21.006;2023-12-14T06:35:08;39.93;;;15.87;;
39540;SDS011;25219;52.244;21.006;2023-12-14T06:37:33;45.33;;;16.55;;
39540;SDS011;25219;52.244;21.006;2023-12-14T06:39:58;44.47;;;16.00;;
39540;SDS011;25219;52.244;21.006;2023-12-14T06:42:24;41.33;;;15.87;;
39540;SDS011;25219;52.244;21.006;2023-12-14T06:44:52;49.22;;;16.65;;
39540;SDS011;25219;52.244;21.006;2023-12-14T06:47:17;41.80;;;15.90;;
39540;SDS011;25219;52.244;21.006;2023-12-14T06:49:43;38.95;;;15.52;;
39540;SDS011;25219;52.244;21.006;2023-12-14T06:52:08;45.88;;;16.52;;
39540;SDS011;25219;52.244;21.006;2023-12-14T06:54:34;40.67;;;15.63;;
39540;SDS011;25219;52.244;21.006;2023-12-14T06:56:59;43.17;;;15.25;;
39540;SDS011;25219;52.244;21.006;2023-12-14T06:59:25;43.00;;;15.87;;
39540;SDS011;25219;52.244;21.006;2023-12-14T07:01:50;42.47;;;15.73;;
39540;SDS011;25219;52.244;21.006;2023-12-14T07:04:15;44.17;;;17.73;;
39540;SDS011;25219;52.244;21.006;2023-12-14T07:06:40;38.28;;;15.85;;
39540;SDS011;25219;52.244;21.006;2023-12-14T07:09:06;42.13;;;17.17;;
39540;SDS011;25219;52.244;21.006;2023-12-14T07:11:31;41.38;;;15.75;;
39540;SDS011;25219;52.244;21.006;2023-12-14T07:13:57;48.67;;;15.97;;
39540;SDS011;25219;52.244;21.006;2023-12-14T07:16:22;61.37;;;16.63;;
39540;SDS011;25219;52.244;21.006;2023-12-14T07:18:47;39.92;;;15.98;;
39540;SDS011;25219;52.244;21.006;2023-12-14T07:21:13;42.80;;;15.88;;
39540;SDS011;25219;52.244;21.006;2023-12-14T07:23:38;38.37;;;15.20;;
39540;SDS011;25219;52.244;21.006;2023-12-14T07:26:03;44.88;;;14.75;;
39540;SDS011;25219;52.244;21.006;2023-12-14T07:28:29;42.20;;;16.05;;
39540;SDS011;25219;52.244;21.006;2023-12-14T07:30:54;43.63;;;16.20;;
39540;SDS011;25219;52.244;21.006;2023-12-14T07:33:20;38.22;;;15.90;;
39540;SDS011;25219;52.244;21.006;2023-12-14T07:35:45;41.95;;;16.60;;
39540;SDS011;25219;52.244;21.006;2023-12-14T07:38:11;40.97;;;15.68;;
39540;SDS011;25219;52.244;21.006;2023-12-14T07:40:36;41.92;;;17.23;;
39540;SDS011;25219;52.244;21.006;2023-12-14T07:43:01;40.78;;;16.40;;
39540;SDS011;25219;52.244;21.006;2023-12-14T07:45:27;46.30;;;18.25;;
39540;SDS011;25219;52.244;21.006;2023-12-14T07:47:52;38.33;;;15.98;;
39540;SDS011;25219;52.244;21.006;2023-12-14T07:50:18;40.25;;;15.05;;
39540;SDS011;25219;52.244;21.006;2023-12-14T07:52:44;39.70;;;15.70;;
39540;SDS011;25219;52.244;21.006;2023-12-14T07:55:09;39.65;;;16.77;;
39540;SDS011;25219;52.244;21.006;2023-12-14T07:57:34;41.33;;;16.13;;
39540;SDS011;25219;52.244;21.006;2023-12-14T08:00:00;43.55;;;16.92;;
39540;SDS011;25219;52.244;21.006;2023-12-14T08:02:25;37.58;;;15.55;;
39540;SDS011;25219;52.244;21.006;2023-12-14T08:04:50;40.77;;;16.63;;
39540;SDS011;25219;52.244;21.006;2023-12-14T08:07:15;41.87;;;17.43;;
39540;SDS011;25219;52.244;21.006;2023-12-14T08:09:40;38.73;;;15.83;;
39540;SDS011;25219;52.244;21.006;2023-12-14T08:12:06;44.13;;;17.73;;
39540;SDS011;25219;52.244;21.006;2023-12-14T08:14:34;45.22;;;17.88;;
39540;SDS011;25219;52.244;21.006;2023-12-14T08:16:59;43.55;;;17.63;;
39540;SDS011;25219;52.244;21.006;2023-12-14T08:19:25;40.78;;;18.25;;
39540;SDS011;25219;52.244;21.006;2023-12-14T08:21:50;41.03;;;16.25;;
39540;SDS011;25219;52.244;21.006;2023-12-14T08:24:15;38.55;;;16.73;;
39540;SDS011;25219;52.244;21.006;2023-12-14T08:26:40;37.77;;;15.47;;
39540;SDS011;25219;52.244;21.006;2023-12-14T08:29:05;42.87;;;16.93;;
39540;SDS011;25219;52.244;21.006;2023-12-14T08:31:31;41.00;;;18.10;;
39540;SDS011;25219;52.244;21.006;2023-12-14T08:33:57;42.55;;;17.77;;
39540;SDS011;25219;52.244;21.006;2023-12-14T08:36:22;35.92;;;16.33;;
39540;SDS011;25219;52.244;21.006;2023-12-14T08:38:47;37.42;;;17.05;;
39540;SDS011;25219;52.244;21.006;2023-12-14T08:41:15;47.13;;;16.53;;
39540;SDS011;25219;52.244;21.006;2023-12-14T08:43:40;39.75;;;16.33;;
39540;SDS011;25219;52.244;21.006;2023-12-14T08:46:06;41.90;;;16.97;;
39540;SDS011;25219;52.244;21.006;2023-12-14T08:48:31;39.53;;;15.67;;
39540;SDS011;25219;52.244;21.006;2023-12-14T08:50:56;36.47;;;15.00;;
39540;SDS011;25219;52.244;21.006;2023-12-14T08:53:21;45.03;;;16.90;;
39540;SDS011;25219;52.244;21.006;2023-12-14T08:55:47;36.90;;;15.23;;
39540;SDS011;25219;52.244;21.006;2023-12-14T08:58:12;36.78;;;14.85;;
39540;SDS011;25219;52.244;21.006;2023-12-14T09:00:37;40.05;;;15.38;;
39540;SDS011;25219;52.244;21.006;2023-12-14T09:03:03;42.80;;;15.25;;
39540;SDS011;25219;52.244;21.006;2023-12-14T09:05:28;37.60;;;15.23;;
39540;SDS011;25219;52.244;21.006;2023-12-14T09:07:54;36.92;;;14.88;;
39540;SDS011;25219;52.244;21.006;2023-12-14T09:10:21;35.78;;;15.15;;
39540;SDS011;25219;52.244;21.006;2023-12-14T09:12:46;33.72;;;13.68;;
39540;SDS011;25219;52.244;21.006;2023-12-14T09:15:11;33.53;;;13.63;;
39540;SDS011;25219;52.244;21.006;2023-12-14T09:17:36;29.33;;;11.93;;
39540;SDS011;25219;52.244;21.006;2023-12-14T09:20:02;26.90;;;12.13;;
39540;SDS011;25219;52.244;21.006;2023-12-14T09:22:30;29.10;;;12.85;;
39540;SDS011;25219;52.244;21.006;2023-12-14T09:24:57;27.23;;;12.40;;
39540;SDS011;25219;52.244;21.006;2023-12-14T09:27:23;24.50;;;10.98;;
39540;SDS011;25219;52.244;21.006;2023-12-14T09:29:48;26.70;;;11.00;;
39540;SDS011;25219;52.244;21.006;2023-12-14T09:32:13;27.93;;;11.97;;
39540;SDS011;25219;52.244;21.006;2023-12-14T09:34:38;23.88;;;10.65;;
39540;SDS011;25219;52.244;21.006;2023-12-14T09:37:04;26.43;;;11.17;;
39540;SDS011;25219;52.244;21.006;2023-12-14T09:39:29;23.40;;;10.27;;
39540;SDS011;25219;52.244;21.006;2023-12-14T09:42:04;26.10;;;11.47;;
39540;SDS011;25219;52.244;21.006;2023-12-14T09:44:30;26.50;;;11.43;;
39540;SDS011;25219;52.244;21.006;2023-12-14T09:46:55;28.95;;;11.25;;
39540;SDS011;25219;52.244;21.006;2023-12-14T09:49:21;24.83;;;10.25;;
39540;SDS011;25219;52.244;21.006;2023-12-14T09:51:48;24.35;;;11.48;;
39540;SDS011;25219;52.244;21.006;2023-12-14T09:54:13;24.38;;;10.68;;
39540;SDS011;25219;52.244;21.006;2023-12-14T09:56:46;23.40;;;9.90;;
39540;SDS011;25219;52.244;21.006;2023-12-14T09:59:11;26.15;;;11.25;;
39540;SDS011;25219;52.244;21.006;2023-12-14T10:01:36;25.75;;;11.10;;
39540;SDS011;25219;52.244;21.006;2023-12-14T10:04:11;24.83;;;11.00;;
39540;SDS011;25219;52.244;21.006;2023-12-14T10:06:37;24.15;;;10.18;;
39540;SDS011;25219;52.244;21.006;2023-12-14T10:09:03;27.92;;;11.32;;
39540;SDS011;25219;52.244;21.006;2023-12-14T10:11:29;26.08;;;10.93;;
39540;SDS011;25219;52.244;21.006;2023-12-14T10:13:54;26.88;;;11.85;;
39540;SDS011;25219;52.244;21.006;2023-12-14T10:16:28;26.92;;;11.48;;
39540;SDS011;25219;52.244;21.006;2023-12-14T10:18:55;28.55;;;11.82;;
39540;SDS011;25219;52.244;21.006;2023-12-14T10:21:21;28.52;;;12.57;;
39540;SDS011;25219;52.244;21.006;2023-12-14T10:23:46;29.10;;;11.65;;
39540;SDS011;25219;52.244;21.006;2023-12-14T10:26:11;28.48;;;12.70;;
39540;SDS011;25219;52.244;21.006;2023-12-14T10:28:39;27.48;;;12.75;;
39540;SDS011;25219;52.244;21.006;2023-12-14T10:31:04;28.50;;;12.85;;
39540;SDS011;25219;52.244;21.006;2023-12-14T10:33:30;27.88;;;12.27;;
39540;SDS011;25219;52.244;21.006;2023-12-14T10:35:55;31.73;;;11.60;;
39540;SDS011;25219;52.244;21.006;2023-12-14T10:38:21;27.38;;;11.90;;
39540;SDS011;25219;52.244;21.006;2023-12-14T10:40:47;30.95;;;11.95;;
39540;SDS011;25219;52.244;21.006;2023-12-14T10:43:12;27.37;;;11.50;;
39540;SDS011;25219;52.244;21.006;2023-12-14T10:45:38;31.33;;;10.85;;
39540;SDS011;25219;52.244;21.006;2023-12-14T10:48:03;26.02;;;11.27;;
39540;SDS011;25219;52.244;21.006;2023-12-14T10:50:29;28.20;;;11.82;;
39540;SDS011;25219;52.244;21.006;2023-12-14T10:52:55;24.15;;;10.93;;
39540;SDS011;25219;52.244;21.006;2023-12-14T10:55:22;26.88;;;11.52;;
39540;SDS011;25219;52.244;21.006;2023-12-14T10:57:48;27.88;;;10.77;;
39540;SDS011;25219;52.244;21.006;2023-12-14T11:00:13;27.60;;;10.80;;
39540;SDS011;25219;52.244;21.006;2023-12-14T11:02:41;29.77;;;12.02;;
39540;SDS011;25219;52.244;21.006;2023-12-14T11:05:11;29.23;;;11.98;;
39540;SDS011;25219;52.244;21.006;2023-12-14T11:10:14;29.17;;;11.68;;
39540;SDS011;25219;52.244;21.006;2023-12-14T11:15:24;36.10;;;11.77;;
39540;SDS011;25219;52.244;21.006;2023-12-14T11:18:32;28.83;;;12.88;;
39540;SDS011;25219;52.244;21.006;2023-12-14T11:25:51;27.85;;;12.00;;
39540;SDS011;25219;52.244;21.006;2023-12-14T11:28:16;35.90;;;13.95;;
39540;SDS011;25219;52.244;21.006;2023-12-14T11:30:43;30.70;;;13.82;;
39540;SDS011;25219;52.244;21.006;2023-12-14T11:33:08;35.33;;;13.82;;
39540;SDS011;25219;52.244;21.006;2023-12-14T11:35:33;38.97;;;13.70;;
39540;SDS011;25219;52.244;21.006;2023-12-14T11:37:59;34.10;;;12.63;;
39540;SDS011;25219;52.244;21.006;2023-12-14T11:40:27;27.60;;;11.13;;
39540;SDS011;25219;52.244;21.006;2023-12-14T11:42:59;31.05;;;12.60;;
39540;SDS011;25219;52.244;21.006;2023-12-14T11:45:24;29.40;;;12.00;;
39540;SDS011;25219;52.244;21.006;2023-12-14T11:47:50;27.85;;;10.80;;
39540;SDS011;25219;52.244;21.006;2023-12-14T11:50:16;28.30;;;10.65;;
39540;SDS011;25219;52.244;21.006;2023-12-14T11:52:41;27.83;;;11.25;;
39540;SDS011;25219;52.244;21.006;2023-12-14T11:55:07;28.95;;;10.43;;
39540;SDS011;25219;52.244;21.006;2023-12-14T11:57:32;26.13;;;10.32;;
39540;SDS011;25219;52.244;21.006;2023-12-14T11:59:58;29.37;;;10.57;;
39540;SDS011;25219;52.244;21.006;2023-12-14T12:02:24;27.13;;;11.00;;
39540;SDS011;25219;52.244;21.006;2023-12-14T12:04:50;29.33;;;11.82;;
39540;SDS011;25219;52.244;21.006;2023-12-14T12:07:18;25.98;;;10.98;;
39540;SDS011;25219;52.244;21.006;2023-12-14T12:09:43;30.70;;;12.03;;
39540;SDS011;25219;52.244;21.006;2023-12-14T12:12:09;36.85;;;12.85;;
39540;SDS011;25219;52.244;21.006;2023-12-14T12:14:35;34.22;;;12.55;;
39540;SDS011;25219;52.244;21.006;2023-12-14T12:17:00;29.27;;;11.27;;
39540;SDS011;25219;52.244;21.006;2023-12-14T12:19:25;34.65;;;12.57;;
39540;SDS011;25219;52.244;21.006;2023-12-14T12:21:51;34.63;;;13.52;;
39540;SDS011;25219;52.244;21.006;2023-12-14T12:24:16;36.08;;;14.00;;
39540;SDS011;25219;52.244;21.006;2023-12-14T12:26:41;33.25;;;14.38;;
39540;SDS011;25219;52.244;21.006;2023-12-14T12:29:06;29.53;;;13.10;;
39540;SDS011;25219;52.244;21.006;2023-12-14T12:31:32;35.60;;;13.50;;
39540;SDS011;25219;52.244;21.006;2023-12-14T12:33:59;38.90;;;13.85;;
39540;SDS011;25219;52.244;21.006;2023-12-14T12:36:24;36.60;;;14.10;;
39540;SDS011;25219;52.244;21.006;2023-12-14T12:38:49;32.97;;;13.65;;
39540;SDS011;25219;52.244;21.006;2023-12-14T12:41:16;38.72;;;13.63;;
39540;SDS011;25219;52.244;21.006;2023-12-14T12:43:41;32.90;;;13.60;;
39540;SDS011;25219;52.244;21.006;2023-12-14T12:46:06;30.42;;;11.80;;
39540;SDS011;25219;52.244;21.006;2023-12-14T12:48:31;29.90;;;11.87;;
39540;SDS011;25219;52.244;21.006;2023-12-14T12:50:57;24.80;;;11.30;;
39540;SDS011;25219;52.244;21.006;2023-12-14T12:53:22;24.67;;;11.07;;
39540;SDS011;25219;52.244;21.006;2023-12-14T12:55:47;23.05;;;9.68;;
39540;SDS011;25219;52.244;21.006;2023-12-14T12:58:13;24.47;;;9.67;;
39540;SDS011;25219;52.244;21.006;2023-12-14T13:00:39;23.05;;;9.88;;
39540;SDS011;25219;52.244;21.006;2023-12-14T13:03:05;24.33;;;11.27;;
39540;SDS011;25219;52.244;21.006;2023-12-14T13:05:30;30.52;;;11.20;;
39540;SDS011;25219;52.244;21.006;2023-12-14T13:07:55;22.87;;;9.97;;
39540;SDS011;25219;52.244;21.006;2023-12-14T13:10:22;24.45;;;11.10;;
39540;SDS011;25219;52.244;21.006;2023-12-14T13:12:52;28.33;;;11.13;;
39540;SDS011;25219;52.244;21.006;2023-12-14T13:15:17;27.77;;;11.75;;
39540;SDS011;25219;52.244;21.006;2023-12-14T13:17:43;29.73;;;12.32;;
39540;SDS011;25219;52.244;21.006;2023-12-14T13:20:09;30.55;;;12.07;;
39540;SDS011;25219;52.244;21.006;2023-12-14T13:22:34;35.17;;;14.15;;
39540;SDS011;25219;52.244;21.006;2023-12-14T13:25:00;34.55;;;14.30;;
39540;SDS011;25219;52.244;21.006;2023-12-14T13:27:25;35.70;;;14.13;;
39540;SDS011;25219;52.244;21.006;2023-12-14T13:29:50;36.57;;;14.63;;
39540;SDS011;25219;52.244;21.006;2023-12-14T13:32:16;34.92;;;13.45;;
39540;SDS011;25219;52.244;21.006;2023-12-14T13:34:41;32.10;;;11.68;;
39540;SDS011;25219;52.244;21.006;2023-12-14T13:37:06;34.30;;;13.27;;
39540;SDS011;25219;52.244;21.006;2023-12-14T13:39:33;30.50;;;12.80;;
39540;SDS011;25219;52.244;21.006;2023-12-14T13:42:02;37.38;;;12.90;;
39540;SDS011;25219;52.244;21.006;2023-12-14T13:44:28;30.10;;;11.90;;
39540;SDS011;25219;52.244;21.006;2023-12-14T13:46:53;33.40;;;13.80;;
39540;SDS011;25219;52.244;21.006;2023-12-14T13:49:18;33.50;;;12.50;;
39540;SDS011;25219;52.244;21.006;2023-12-14T13:51:44;34.20;;;13.13;;
39540;SDS011;25219;52.244;21.006;2023-12-14T13:54:09;37.70;;;15.27;;
39540;SDS011;25219;52.244;21.006;2023-12-14T13:56:34;40.92;;;15.30;;
39540;SDS011;25219;52.244;21.006;2023-12-14T13:58:59;35.93;;;13.97;;
39540;SDS011;25219;52.244;21.006;2023-12-14T14:01:24;36.03;;;13.37;;
39540;SDS011;25219;52.244;21.006;2023-12-14T14:03:50;31.47;;;13.10;;
39540;SDS011;25219;52.244;21.006;2023-12-14T14:06:15;35.10;;;13.97;;
39540;SDS011;25219;52.244;21.006;2023-12-14T14:08:40;35.40;;;14.02;;
39540;SDS011;25219;52.244;21.006;2023-12-14T14:11:05;40.27;;;14.63;;